Time;durP1;ratioP1;P1;durP2;ratioP2;P2;SDS_P1;SDS_P2;PMS_P1;PMS_P2;Temp;Humidity;BMP_temperature;BMP_pressure;BME280_temperature;BME280_humidity;BME280_pressure;Samples;Min_cycle;Max_cycle;Signal;HPM_P1;HPM_P2
2021/01/09 00:00:12;;;;;;;0.00;0.00;;;0.30;99.90;;;;;;5009179;28;20040;-87
2021/01/09 00:02:40;;;;;;;0.00;0.00;;;0.20;99.90;;;;;;4999079;28;20054;-87
2021/01/09 00:05:06;;;;;;;0.00;0.00;;;0.30;99.90;;;;;;4993118;28;20179;-87
2021/01/09 00:07:33;;;;;;;0.00;0.00;;;0.30;99.90;;;;;;4993008;28;20391;-87
2021/01/09 00:09:59;;;;;;;1.83;1.02;;;0.30;99.90;;;;;;4993051;28;20480;-87
2021/01/09 00:12:25;;;;;;;0.00;0.00;;;0.20;99.90;;;;;;4993086;28;20042;-87
2021/01/09 00:14:51;;;;;;;0.00;0.00;;;0.30;99.90;;;;;;4992895;28;20037;-88
2021/01/09 00:17:16;;;;;;;0.00;0.00;;;0.20;99.90;;;;;;4992861;28;20137;-87
2021/01/09 00:19:42;;;;;;;0.00;0.00;;;0.20;99.90;;;;;;4992647;28;20046;-88
2021/01/09 00:22:08;;;;;;;0.00;0.00;;;0.10;99.90;;;;;;4992823;28;20068;-88
2021/01/09 00:24:36;;;;;;;0.00;0.00;;;0.00;99.90;;;;;;4992776;28;20062;-87
2021/01/09 00:27:06;;;;;;;0.00;0.00;;;0.00;99.90;;;;;;4992880;28;20383;-87
2021/01/09 00:29:32;;;;;;;0.00;0.00;;;0.00;99.90;;;;;;4992601;28;20046;-88
2021/01/09 00:31:58;;;;;;;0.00;0.00;;;0.00;99.90;;;;;;4989281;28;20049;-87
2021/01/09 00:34:23;;;;;;;0.00;0.00;;;-0.10;99.90;;;;;;4989485;28;20070;-87
2021/01/09 00:36:49;;;;;;;0.00;0.00;;;-0.20;99.90;;;;;;5005547;28;20157;-87
2021/01/09 00:39:15;;;;;;;1.38;1.35;;;-0.40;99.90;;;;;;4973165;28;20066;-87
2021/01/09 00:41:40;;;;;;;0.00;0.00;;;-0.50;99.90;;;;;;4973676;28;20038;-87
2021/01/09 00:44:09;;;;;;;0.00;0.00;;;-0.60;99.90;;;;;;4989345;28;20078;-88
2021/01/09 00:46:35;;;;;;;0.00;0.00;;;-0.60;99.90;;;;;;4989350;28;20379;-87
2021/01/09 00:49:02;;;;;;;0.00;0.00;;;-0.60;99.90;;;;;;4994252;28;20072;-87
2021/01/09 00:51:27;;;;;;;0.00;0.00;;;-0.70;99.90;;;;;;5011974;28;20042;-87
2021/01/09 00:54:14;;;;;;;0.00;0.00;;;-0.60;99.90;;;;;;4995824;28;20038;-87
2021/01/09 00:56:39;;;;;;;1.98;1.55;;;-0.70;99.90;;;;;;4971765;29;20047;-88
2021/01/09 00:59:05;;;;;;;0.00;0.00;;;-0.80;99.90;;;;;;4955614;29;20039;-87
2021/01/09 01:01:30;;;;;;;0.00;0.00;;;-0.80;99.90;;;;;;4959561;28;20058;-87
2021/01/09 01:03:56;;;;;;;0.00;0.00;;;-0.80;99.90;;;;;;4959149;28;20110;-86
2021/01/09 01:06:23;;;;;;;0.00;0.00;;;-0.80;99.90;;;;;;4975058;28;20065;-87
2021/01/09 01:08:49;;;;;;;0.00;0.00;;;-0.90;99.90;;;;;;4975009;28;20515;-87
2021/01/09 01:11:26;;;;;;;0.00;0.00;;;-0.90;99.90;;;;;;4974924;28;20038;-87
2021/01/09 01:13:52;;;;;;;0.00;0.00;;;-0.90;99.90;;;;;;4975008;28;20246;-87
2021/01/09 01:16:19;;;;;;;0.00;0.00;;;-0.80;99.90;;;;;;4988562;28;20046;-87
2021/01/09 01:18:44;;;;;;;0.00;0.00;;;-0.80;99.90;;;;;;4997776;28;20077;-87
2021/01/09 01:21:10;;;;;;;0.08;0.08;;;-0.80;99.90;;;;;;4997470;28;20038;-87
2021/01/09 01:23:36;;;;;;;0.00;0.00;;;-0.90;99.90;;;;;;4997678;28;20041;-87
2021/01/09 01:26:01;;;;;;;0.00;0.00;;;-0.80;99.90;;;;;;4997604;28;20119;-87
2021/01/09 01:28:27;;;;;;;0.00;0.00;;;-0.70;99.90;;;;;;4997191;28;20077;-86
2021/01/09 01:30:53;;;;;;;0.00;0.00;;;-0.80;99.90;;;;;;4985027;28;20038;-87
2021/01/09 01:33:18;;;;;;;0.00;0.00;;;-0.80;99.90;;;;;;5001406;28;20073;-87
2021/01/09 01:35:44;;;;;;;0.00;0.00;;;-1.00;99.90;;;;;;5011490;28;20038;-87
2021/01/09 01:38:09;;;;;;;0.00;0.00;;;-1.00;99.90;;;;;;5011593;28;20341;-87
2021/01/09 01:40:35;;;;;;;0.00;0.00;;;-1.00;99.90;;;;;;5011210;28;20043;-87
2021/01/09 01:43:00;;;;;;;0.00;0.00;;;-1.10;99.90;;;;;;5011340;28;20096;-88
2021/01/09 01:45:26;;;;;;;0.00;0.00;;;-1.10;99.90;;;;;;5011598;28;20042;-87
2021/01/09 01:47:52;;;;;;;0.43;0.43;;;-1.30;99.90;;;;;;4995268;28;20046;-87
2021/01/09 01:50:17;;;;;;;0.00;0.00;;;-1.30;99.90;;;;;;5011316;28;20038;-87
2021/01/09 01:52:44;;;;;;;0.00;0.00;;;-1.20;99.90;;;;;;5012428;28;20121;-87
2021/01/09 01:55:10;;;;;;;0.00;0.00;;;-1.10;99.90;;;;;;5022914;23;20113;-87
2021/01/09 01:57:36;;;;;;;0.00;0.00;;;-1.10;99.90;;;;;;5014834;28;20050;-87
2021/01/09 02:00:04;;;;;;;0.00;0.00;;;-1.10;99.90;;;;;;5013212;28;20042;-86
2021/01/09 02:02:37;;;;;;;0.00;0.00;;;-1.30;99.90;;;;;;5012929;28;20073;-86
2021/01/09 02:05:04;;;;;;;0.00;0.00;;;-1.20;99.90;;;;;;5011882;28;20125;-86
2021/01/09 02:07:38;;;;;;;1.98;1.65;;;-1.30;99.90;;;;;;4995758;28;20049;-87
2021/01/09 02:10:06;;;;;;;0.00;0.00;;;-1.40;99.90;;;;;;4995283;28;20498;-87
2021/01/09 02:12:48;;;;;;;0.00;0.00;;;-1.40;99.90;;;;;;4995481;28;20042;-87
2021/01/09 02:15:16;;;;;;;0.00;0.00;;;-1.50;99.90;;;;;;4995610;28;20099;-87
2021/01/09 02:17:44;;;;;;;0.00;0.00;;;-1.40;99.90;;;;;;5011494;28;20109;-87
2021/01/09 02:20:12;;;;;;;0.00;0.00;;;-1.30;99.90;;;;;;5011811;28;20034;-87
2021/01/09 02:22:44;;;;;;;0.00;0.00;;;-1.30;99.90;;;;;;5011502;28;20138;-86
2021/01/09 02:25:12;;;;;;;0.00;0.00;;;-1.20;99.90;;;;;;5011341;28;20041;-87
2021/01/09 02:27:38;;;;;;;0.10;0.10;;;-1.30;99.90;;;;;;5011558;28;20034;-87
2021/01/09 02:30:14;;;;;;;0.00;0.00;;;-1.30;99.90;;;;;;5011204;28;20057;-87
2021/01/09 02:33:02;;;;;;;0.00;0.00;;;-1.30;99.90;;;;;;4995319;28;20030;-87
2021/01/09 02:35:29;;;;;;;0.00;0.00;;;-1.30;99.90;;;;;;4995049;28;20054;-87
2021/01/09 02:37:55;;;;;;;0.00;0.00;;;-1.20;99.90;;;;;;4994553;28;20049;-87
2021/01/09 02:40:21;;;;;;;0.00;0.00;;;-1.20;99.90;;;;;;5010955;28;20066;-87
2021/01/09 02:42:47;;;;;;;0.00;0.00;;;-1.30;99.90;;;;;;4994722;28;20076;-87
2021/01/09 02:45:13;;;;;;;0.00;0.00;;;-1.20;99.90;;;;;;4994661;28;20041;-87
2021/01/09 02:47:39;;;;;;;0.00;0.00;;;-1.10;99.90;;;;;;4994670;28;20065;-87
2021/01/09 02:50:09;;;;;;;0.00;0.00;;;-1.10;99.90;;;;;;5028424;28;20085;-87
2021/01/09 02:52:35;;;;;;;0.00;0.00;;;-1.20;99.90;;;;;;4994677;28;20033;-87
2021/01/09 02:55:00;;;;;;;0.00;0.00;;;-1.20;99.90;;;;;;4995201;28;20490;-88
2021/01/09 02:57:26;;;;;;;0.00;0.00;;;-1.30;99.90;;;;;;5030195;28;20049;-88
2021/01/09 02:59:51;;;;;;;0.00;0.00;;;-1.20;99.90;;;;;;5030081;28;20056;-87
2021/01/09 03:02:17;;;;;;;10.98;7.43;;;-1.20;99.90;;;;;;5013756;28;20042;-88
2021/01/09 03:04:43;;;;;;;0.00;0.00;;;-1.20;99.90;;;;;;5030063;28;20055;-87
2021/01/09 03:07:08;;;;;;;0.00;0.00;;;-1.20;99.90;;;;;;5029894;28;20045;-88
2021/01/09 03:09:34;;;;;;;0.00;0.00;;;-1.20;99.90;;;;;;5029958;28;20448;-87
2021/01/09 03:12:00;;;;;;;0.00;0.00;;;-1.10;99.90;;;;;;5029206;28;20131;-88
2021/01/09 03:14:26;;;;;;;0.00;0.00;;;-1.10;99.90;;;;;;5029984;28;20125;-88
2021/01/09 03:16:51;;;;;;;0.00;0.00;;;-1.20;99.90;;;;;;5041339;28;20059;-88
2021/01/09 03:19:17;;;;;;;0.00;0.00;;;-1.20;99.90;;;;;;5066054;28;20025;-87
2021/01/09 03:21:42;;;;;;;0.00;0.00;;;-1.20;99.90;;;;;;5049508;28;20405;-87
2021/01/09 03:24:08;;;;;;;0.00;0.00;;;-1.20;99.90;;;;;;5049552;28;20123;-87
2021/01/09 03:26:34;;;;;;;0.00;0.00;;;-1.40;99.90;;;;;;5066044;28;20579;-88
2021/01/09 03:28:59;;;;;;;0.52;0.52;;;-1.50;99.90;;;;;;5049242;28;20033;-87
2021/01/09 03:31:27;;;;;;;0.00;0.00;;;-1.50;99.90;;;;;;5036017;28;20046;-87
2021/01/09 03:33:53;;;;;;;0.00;0.00;;;-1.60;99.90;;;;;;5045612;28;20044;-87
2021/01/09 03:36:18;;;;;;;0.00;0.00;;;-1.70;99.90;;;;;;5029334;28;20041;-88
2021/01/09 03:38:44;;;;;;;4.40;4.10;;;-1.60;99.90;;;;;;5045526;28;20048;-87
2021/01/09 03:41:09;;;;;;;0.00;0.00;;;-1.60;99.90;;;;;;5013185;28;20377;-87
2021/01/09 03:43:35;;;;;;;0.00;0.00;;;-1.60;99.90;;;;;;5041197;28;20048;-87
2021/01/09 03:46:01;;;;;;;0.00;0.00;;;-1.60;99.90;;;;;;5029452;28;20037;-87
2021/01/09 03:48:26;;;;;;;0.00;0.00;;;-1.70;99.90;;;;;;5028948;28;20040;-86
2021/01/09 03:50:53;;;;;;;0.00;0.00;;;-1.80;99.90;;;;;;5029313;28;20034;-87
2021/01/09 03:53:18;;;;;;;0.00;0.00;;;-1.90;99.90;;;;;;5012598;28;20034;-87
2021/01/09 03:55:44;;;;;;;0.00;0.00;;;-1.90;99.90;;;;;;5028730;28;20115;-87
2021/01/09 03:58:10;;;;;;;0.00;0.00;;;-2.00;99.90;;;;;;5028984;28;20041;-88
2021/01/09 04:00:35;;;;;;;0.00;0.00;;;-2.10;99.90;;;;;;5028908;28;20041;-87
2021/01/09 04:03:01;;;;;;;0.00;0.00;;;-2.00;99.90;;;;;;5028982;28;20124;-87
2021/01/09 04:05:27;;;;;;;0.00;0.00;;;-2.00;99.90;;;;;;5012470;28;20048;-87
2021/01/09 04:07:52;;;;;;;0.00;0.00;;;-2.10;99.90;;;;;;5012492;28;20132;-88
2021/01/09 04:10:18;;;;;;;0.00;0.00;;;-2.10;99.90;;;;;;5045460;28;20207;-87
2021/01/09 04:12:43;;;;;;;1.00;0.55;;;-2.10;99.90;;;;;;5029017;28;20041;-87
2021/01/09 04:15:11;;;;;;;0.00;0.00;;;-2.30;99.90;;;;;;5012436;28;20042;-87
2021/01/09 04:17:37;;;;;;;0.20;0.20;;;-2.40;99.90;;;;;;5046064;28;20110;-87
2021/01/09 04:20:03;;;;;;;0.00;0.00;;;-2.30;99.90;;;;;;5048237;28;20037;-87
2021/01/09 04:22:28;;;;;;;0.00;0.00;;;-2.40;99.90;;;;;;5047455;28;20065;-86
2021/01/09 04:24:54;;;;;;;0.00;0.00;;;-2.40;99.90;;;;;;5048342;28;20067;-86
2021/01/09 04:27:20;;;;;;;0.00;0.00;;;-2.40;99.90;;;;;;5048479;28;20045;-86
2021/01/09 04:29:45;;;;;;;6.03;2.08;;;-2.40;99.90;;;;;;5048369;28;20036;-87
2021/01/09 04:32:11;;;;;;;0.00;0.00;;;-2.50;99.90;;;;;;5028855;28;20125;-86
2021/01/09 04:34:37;;;;;;;0.00;0.00;;;-2.50;99.90;;;;;;5028186;28;20045;-86
2021/01/09 04:37:02;;;;;;;0.00;0.00;;;-2.60;99.90;;;;;;5012213;28;20057;-87
2021/01/09 04:39:28;;;;;;;0.00;0.00;;;-2.60;99.90;;;;;;5028310;28;20125;-86
2021/01/09 04:41:54;;;;;;;0.00;0.00;;;-2.50;99.90;;;;;;5028570;28;20042;-85
2021/01/09 04:44:20;;;;;;;0.00;0.00;;;-2.50;99.90;;;;;;5028346;28;20072;-87
2021/01/09 04:46:53;;;;;;;0.00;0.00;;;-2.50;99.90;;;;;;5028234;28;20041;-86
2021/01/09 04:49:24;;;;;;;0.00;0.00;;;-2.60;99.90;;;;;;5044924;28;20045;-87
2021/01/09 04:51:51;;;;;;;0.00;0.00;;;-2.60;99.90;;;;;;5028215;28;20042;-86
2021/01/09 04:54:19;;;;;;;0.00;0.00;;;-2.60;99.90;;;;;;5012062;28;20045;-86
2021/01/09 04:56:47;;;;;;;0.00;0.00;;;-2.60;99.90;;;;;;5044608;28;20053;-86
2021/01/09 04:59:13;;;;;;;0.00;0.00;;;-2.70;99.90;;;;;;5028431;28;20045;-86
2021/01/09 05:01:41;;;;;;;0.00;0.00;;;-2.60;99.90;;;;;;5044936;28;20041;-87
2021/01/09 05:04:06;;;;;;;0.00;0.00;;;-2.60;99.90;;;;;;5028518;28;20527;-87
2021/01/09 05:06:32;;;;;;;0.00;0.00;;;-2.60;99.90;;;;;;5028363;28;20046;-86
2021/01/09 05:08:58;;;;;;;0.00;0.00;;;-2.60;99.90;;;;;;5028127;28;20438;-87
2021/01/09 05:11:23;;;;;;;0.00;0.00;;;-2.70;99.90;;;;;;5028229;28;20076;-87
2021/01/09 05:13:49;;;;;;;0.00;0.00;;;-2.80;99.90;;;;;;5028141;28;20033;-87
2021/01/09 05:16:16;;;;;;;0.00;0.00;;;-2.80;99.90;;;;;;5034663;28;20107;-87
2021/01/09 05:18:42;;;;;;;0.00;0.00;;;-2.70;99.90;;;;;;5048015;28;20064;-87
2021/01/09 05:21:12;;;;;;;2.47;2.28;;;-2.80;99.90;;;;;;5048036;28;20033;-87
2021/01/09 05:23:51;;;;;;;0.47;0.47;;;-2.90;99.90;;;;;;5047832;28;20040;-88
2021/01/09 05:26:18;;;;;;;0.00;0.00;;;-2.90;99.90;;;;;;5047896;28;20351;-87
2021/01/09 05:28:53;;;;;;;0.00;0.00;;;-2.90;99.90;;;;;;5047923;28;20037;-87
2021/01/09 05:31:23;;;;;;;0.00;0.00;;;-2.90;99.90;;;;;;5035322;28;20123;-87
2021/01/09 05:33:50;;;;;;;0.00;0.00;;;-2.90;99.90;;;;;;5012600;28;20038;-88
2021/01/09 05:36:17;;;;;;;0.00;0.00;;;-2.90;99.90;;;;;;5048412;28;20496;-88
2021/01/09 05:38:45;;;;;;;0.00;0.00;;;-3.00;99.90;;;;;;5031628;28;20061;-88
2021/01/09 05:41:18;;;;;;;0.00;0.00;;;-2.90;99.90;;;;;;5031745;28;20037;-88
2021/01/09 05:44:03;;;;;;;0.00;0.00;;;-2.90;99.90;;;;;;5048081;28;20046;-88
2021/01/09 05:46:31;;;;;;;0.00;0.00;;;-2.90;99.90;;;;;;5015396;28;20113;-88
2021/01/09 05:48:57;;;;;;;0.00;0.00;;;-2.80;99.90;;;;;;5048075;28;20048;-88
2021/01/09 05:51:23;;;;;;;0.00;0.00;;;-2.70;99.90;;;;;;5031592;28;20061;-89
2021/01/09 05:54:09;;;;;;;0.00;0.00;;;-2.80;99.90;;;;;;5031066;28;20064;-88
2021/01/09 05:56:39;;;;;;;0.00;0.00;;;-2.90;99.90;;;;;;5010416;28;20049;-88
2021/01/09 05:59:05;;;;;;;0.00;0.00;;;-2.70;99.90;;;;;;5010401;28;20073;-88
2021/01/09 06:01:34;;;;;;;0.00;0.00;;;-2.80;99.90;;;;;;5010585;28;20042;-89
2021/01/09 06:04:18;;;;;;;0.00;0.00;;;-2.70;99.90;;;;;;5010520;28;20105;-90
2021/01/09 06:06:45;;;;;;;0.00;0.00;;;-2.60;99.90;;;;;;5010336;28;20046;-89
2021/01/09 06:09:17;;;;;;;1.35;1.27;;;-2.70;99.90;;;;;;5009943;28;20049;-90
2021/01/09 06:11:43;;;;;;;0.00;0.00;;;-2.70;99.90;;;;;;5010261;28;20037;-90
2021/01/09 06:14:11;;;;;;;0.00;0.00;;;-2.40;99.90;;;;;;5010237;28;20065;-89
2021/01/09 06:16:39;;;;;;;0.00;0.00;;;-2.40;99.90;;;;;;5019533;28;20117;-89
2021/01/09 06:19:06;;;;;;;0.00;0.00;;;-2.50;99.90;;;;;;5013115;28;20597;-90
2021/01/09 06:21:33;;;;;;;0.00;0.00;;;-2.50;99.90;;;;;;5013238;28;20123;-90
2021/01/09 06:24:01;;;;;;;0.00;0.00;;;-2.40;99.90;;;;;;5013043;28;20074;-90
2021/01/09 06:26:28;;;;;;;0.00;0.00;;;-2.50;99.90;;;;;;5013284;28;20152;-90
2021/01/09 06:29:03;;;;;;;0.00;0.00;;;-2.40;99.90;;;;;;5029192;28;20117;-90
2021/01/09 06:31:30;;;;;;;0.00;0.00;;;-2.30;99.90;;;;;;4999179;28;20038;-90
2021/01/09 06:34:01;;;;;;;0.00;0.00;;;-2.30;99.90;;;;;;5014916;28;20052;-90
2021/01/09 06:36:27;;;;;;;0.00;0.00;;;-2.30;99.90;;;;;;5046886;28;20049;-90
2021/01/09 06:38:55;;;;;;;0.00;0.00;;;-2.20;99.90;;;;;;5030305;28;20049;-90
2021/01/09 06:41:23;;;;;;;0.00;0.00;;;-2.10;99.90;;;;;;5030649;28;20044;-91
2021/01/09 06:43:54;;;;;;;0.00;0.00;;;-2.00;99.90;;;;;;5030325;28;20041;-90
2021/01/09 06:46:27;;;;;;;;;;;-2.10;99.90;;;;;;5013789;28;20041;-90
2021/01/09 06:48:53;;;;;;;0.00;0.00;;;-2.10;99.90;;;;;;5046546;28;19908;-90
2021/01/09 06:51:41;;;;;;;0.00;0.00;;;-2.00;99.90;;;;;;5030110;28;20044;-90
2021/01/09 06:54:27;;;;;;;0.00;0.00;;;-2.00;99.90;;;;;;5029797;28;20045;-89
2021/01/09 06:57:02;;;;;;;0.00;0.00;;;-2.10;99.90;;;;;;4993031;28;20037;-90
2021/01/09 06:59:28;;;;;;;0.00;0.00;;;-2.20;99.90;;;;;;4993071;28;20045;-90
2021/01/09 07:02:09;;;;;;;0.00;0.00;;;-2.30;99.90;;;;;;4993075;28;20037;-91
2021/01/09 07:04:57;;;;;;;0.00;0.00;;;-2.10;99.90;;;;;;4993065;28;20042;-90
2021/01/09 07:07:27;;;;;;;0.00;0.00;;;-2.20;99.90;;;;;;4993337;28;20037;-90
2021/01/09 07:09:57;;;;;;;;;;;-2.30;99.90;;;;;;5008750;28;20038;-91
2021/01/09 07:12:27;;;;;;;0.00;0.00;;;-2.30;99.90;;;;;;5010423;28;19948;-90
2021/01/09 07:14:56;;;;;;;;;;;-2.10;99.90;;;;;;4991338;28;20038;-91
2021/01/09 07:17:27;;;;;;;0.00;0.00;;;-1.90;99.90;;;;;;5008333;28;19996;-90
2021/01/09 07:19:53;;;;;;;0.00;0.00;;;-1.90;99.90;;;;;;5030563;28;20034;-90
2021/01/09 07:22:20;;;;;;;0.00;0.00;;;-1.80;99.90;;;;;;5030865;28;20133;-89
2021/01/09 07:24:47;;;;;;;0.00;0.00;;;-1.90;99.90;;;;;;5030537;28;20433;-90
2021/01/09 07:27:17;;;;;;;0.00;0.00;;;-1.90;99.90;;;;;;5029143;28;20037;-90
2021/01/09 07:29:46;;;;;;;0.00;0.00;;;-1.90;99.90;;;;;;5028329;28;20041;-91
2021/01/09 07:32:11;;;;;;;0.00;0.00;;;-2.00;99.90;;;;;;5009136;28;20040;-89
2021/01/09 07:34:42;;;;;;;0.00;0.00;;;-1.80;99.90;;;;;;5017016;28;20073;-90
2021/01/09 07:37:08;;;;;;;0.00;0.00;;;-1.80;99.90;;;;;;5042786;28;20060;-90
2021/01/09 07:39:54;;;;;;;0.00;0.00;;;-1.80;99.90;;;;;;5026011;28;20098;-90
2021/01/09 07:42:30;;;;;;;0.00;0.00;;;-1.60;99.90;;;;;;5009737;28;20084;-89
2021/01/09 07:45:19;;;;;;;0.00;0.00;;;-1.60;99.90;;;;;;5026210;28;20048;-90
2021/01/09 07:47:47;;;;;;;0.00;0.00;;;-1.50;99.90;;;;;;5026137;28;20046;-89
2021/01/09 07:50:18;;;;;;;0.00;0.00;;;-1.40;99.90;;;;;;4996144;28;20033;-90
2021/01/09 07:52:45;;;;;;;0.00;0.00;;;-1.50;99.90;;;;;;5026023;28;20177;-90
2021/01/09 07:55:15;;;;;;;0.00;0.00;;;-1.40;99.90;;;;;;5009074;28;20041;-90
2021/01/09 07:57:41;;;;;;;0.00;0.00;;;-1.40;99.90;;;;;;5025265;28;20054;-90
2021/01/09 08:00:09;;;;;;;0.00;0.00;;;-1.50;99.90;;;;;;5041881;28;20037;-90
2021/01/09 08:02:36;;;;;;;0.00;0.00;;;-1.40;99.90;;;;;;5009201;28;20041;-90
2021/01/09 08:05:07;;;;;;;0.00;0.00;;;-1.50;99.90;;;;;;4993669;28;20038;-90
2021/01/09 08:07:38;;;;;;;0.00;0.00;;;-1.50;99.90;;;;;;4992473;28;20134;-90
2021/01/09 08:10:36;;;;;;;0.00;0.00;;;-1.50;99.90;;;;;;4992254;28;20053;-90
2021/01/09 08:13:09;;;;;;;4.32;4.00;;;-1.40;99.90;;;;;;4996296;28;20048;-90
2021/01/09 08:15:37;;;;;;;0.80;0.80;;;-1.40;99.90;;;;;;5003964;28;20442;-90
2021/01/09 08:18:07;;;;;;;0.00;0.00;;;-1.30;99.90;;;;;;5001378;28;20045;-91
2021/01/09 08:20:33;;;;;;;1.60;1.50;;;-1.30;99.90;;;;;;5001728;28;20060;-90
2021/01/09 08:23:01;;;;;;;0.00;0.00;;;-1.30;99.90;;;;;;5017116;28;20109;-91
2021/01/09 08:25:32;;;;;;;0.00;0.00;;;-1.20;99.90;;;;;;5024693;28;20033;-91
2021/01/09 08:28:00;;;;;;;0.00;0.00;;;-1.10;99.90;;;;;;5029006;28;20040;-91
2021/01/09 08:30:34;;;;;;;0.00;0.00;;;-1.00;99.90;;;;;;5014806;28;20393;-90
2021/01/09 08:33:16;;;;;;;0.00;0.00;;;-0.90;99.90;;;;;;5002606;28;20504;-90
2021/01/09 08:35:50;;;;;;;0.00;0.00;;;-0.90;99.90;;;;;;5006548;28;20034;-90
2021/01/09 08:38:16;;;;;;;0.10;0.10;;;-0.90;99.90;;;;;;5024668;28;20049;-90
2021/01/09 08:40:45;;;;;;;0.00;0.00;;;-0.80;99.90;;;;;;5010876;28;20034;-90
2021/01/09 08:43:12;;;;;;;0.00;0.00;;;-0.80;99.90;;;;;;5010879;28;20065;-90
2021/01/09 08:45:38;;;;;;;0.00;0.00;;;-0.70;99.90;;;;;;5011497;28;20041;-90
2021/01/09 08:48:07;;;;;;;0.00;0.00;;;-0.70;99.90;;;;;;5011307;28;20621;-90
2021/01/09 08:50:36;;;;;;;0.32;0.32;;;-0.80;99.90;;;;;;5027871;28;20041;-90
2021/01/09 08:53:05;;;;;;;0.00;0.00;;;-0.70;99.90;;;;;;5009688;28;20037;-90
2021/01/09 08:55:31;;;;;;;16.23;6.03;;;-0.80;99.90;;;;;;5016477;23;20144;-89
2021/01/09 08:58:00;;;;;;;0.00;0.00;;;-0.90;99.90;;;;;;5008328;28;20525;-89
2021/01/09 09:00:26;;;;;;;26.10;5.07;;;-0.90;99.90;;;;;;5024935;28;20038;-89
2021/01/09 09:02:54;;;;;;;0.57;0.57;;;-0.90;99.90;;;;;;5008486;28;20048;-90
2021/01/09 09:05:22;;;;;;;0.00;0.00;;;-0.80;99.90;;;;;;5008581;28;20505;-90
2021/01/09 09:07:51;;;;;;;0.00;0.00;;;-0.50;99.90;;;;;;5008380;28;20045;-90
2021/01/09 09:10:18;;;;;;;0.00;0.00;;;-0.40;99.90;;;;;;5010847;28;20070;-89
2021/01/09 09:12:43;;;;;;;0.00;0.00;;;-0.40;99.90;;;;;;5012530;28;20045;-89
2021/01/09 09:15:10;;;;;;;0.00;0.00;;;-0.20;99.90;;;;;;5011957;28;20037;-90
2021/01/09 09:17:37;;;;;;;0.10;0.10;;;-0.20;99.90;;;;;;5012070;28;20050;-90
2021/01/09 09:20:05;;;;;;;3.00;2.75;;;-0.20;99.90;;;;;;5012004;28;20049;-89
2021/01/09 09:22:32;;;;;;;0.00;0.00;;;0.00;99.90;;;;;;5008758;28;20038;-89
2021/01/09 09:24:58;;;;;;;0.00;0.00;;;0.10;99.90;;;;;;5011767;28;20125;-89
2021/01/09 09:27:32;;;;;;;0.00;0.00;;;0.20;99.90;;;;;;5027758;28;20153;-88
2021/01/09 09:30:09;;;;;;;0.00;0.00;;;0.30;99.90;;;;;;5010310;28;20052;-88
2021/01/09 09:32:36;;;;;;;0.00;0.00;;;0.30;99.90;;;;;;4995942;28;20052;-89
2021/01/09 09:35:25;;;;;;;0.00;0.00;;;0.40;99.90;;;;;;5011801;28;20038;-88
2021/01/09 09:37:52;;;;;;;0.00;0.00;;;0.40;99.90;;;;;;5011689;28;20072;-88
2021/01/09 09:40:25;;;;;;;0.00;0.00;;;0.40;99.90;;;;;;5011005;28;20041;-88
2021/01/09 09:42:51;;;;;;;0.00;0.00;;;0.50;99.90;;;;;;5010907;28;20062;-88
2021/01/09 09:45:17;;;;;;;0.00;0.00;;;0.60;99.90;;;;;;5011336;28;20041;-87
2021/01/09 09:47:50;;;;;;;0.00;0.00;;;0.70;99.90;;;;;;5011536;28;20038;-88
2021/01/09 09:50:20;;;;;;;0.00;0.00;;;0.90;99.90;;;;;;5011890;28;20042;-87
2021/01/09 09:52:59;;;;;;;0.00;0.00;;;0.90;99.90;;;;;;5011341;28;20118;-86
2021/01/09 09:55:25;;;;;;;0.00;0.00;;;1.00;99.90;;;;;;5011135;28;20096;-88
2021/01/09 09:58:10;;;;;;;0.00;0.00;;;1.00;99.90;;;;;;5010690;28;20053;-87
2021/01/09 10:00:43;;;;;;;0.52;0.20;;;1.10;99.90;;;;;;5011020;28;20049;-87
2021/01/09 10:03:09;;;;;;;0.00;0.00;;;1.20;99.90;;;;;;5010963;28;20068;-87
2021/01/09 10:05:35;;;;;;;0.00;0.00;;;1.20;99.90;;;;;;5010899;28;20113;-88
2021/01/09 10:08:12;;;;;;;0.00;0.00;;;1.20;99.90;;;;;;5010750;28;20050;-87
2021/01/09 10:10:38;;;;;;;0.00;0.00;;;1.20;99.90;;;;;;5010811;28;20106;-87
2021/01/09 10:13:03;;;;;;;0.00;0.00;;;1.20;99.90;;;;;;5027101;28;20065;-87
2021/01/09 10:15:29;;;;;;;0.08;0.08;;;1.20;99.90;;;;;;5010777;28;20142;-87
2021/01/09 10:17:56;;;;;;;0.00;0.00;;;1.30;99.90;;;;;;5010518;28;20054;-87
2021/01/09 10:20:23;;;;;;;0.00;0.00;;;1.40;99.90;;;;;;5009405;28;20041;-87
2021/01/09 10:22:48;;;;;;;0.00;0.00;;;1.50;99.90;;;;;;5010652;28;20057;-88
2021/01/09 10:25:14;;;;;;;0.00;0.00;;;1.50;99.90;;;;;;5010701;28;20395;-88
2021/01/09 10:27:39;;;;;;;0.00;0.00;;;1.70;99.90;;;;;;5010465;28;20037;-87
2021/01/09 10:30:06;;;;;;;0.00;0.00;;;1.80;99.90;;;;;;5010233;28;20073;-88
2021/01/09 10:32:32;;;;;;;0.00;0.00;;;1.90;99.90;;;;;;5010331;28;20053;-87
2021/01/09 10:34:57;;;;;;;0.00;0.00;;;1.90;99.90;;;;;;5010616;28;20057;-88
2021/01/09 10:37:23;;;;;;;0.00;0.00;;;1.90;99.90;;;;;;5010324;28;20136;-88
2021/01/09 10:39:49;;;;;;;0.00;0.00;;;1.90;99.90;;;;;;5026704;28;20089;-87
2021/01/09 10:42:15;;;;;;;0.00;0.00;;;2.00;99.90;;;;;;5010420;28;20050;-88
2021/01/09 10:44:41;;;;;;;0.00;0.00;;;2.10;99.90;;;;;;5010931;28;20552;-87
2021/01/09 10:47:07;;;;;;;0.00;0.00;;;2.20;99.90;;;;;;5010151;28;20066;-88
2021/01/09 10:49:32;;;;;;;0.00;0.00;;;2.20;99.90;;;;;;5010129;28;20041;-87
2021/01/09 10:51:58;;;;;;;0.00;0.00;;;2.20;99.90;;;;;;5010160;28;20045;-87
2021/01/09 10:54:24;;;;;;;0.00;0.00;;;2.20;99.90;;;;;;5010122;28;20038;-88
2021/01/09 10:56:49;;;;;;;0.00;0.00;;;2.20;99.90;;;;;;4993927;28;20050;-88
2021/01/09 10:59:15;;;;;;;0.00;0.00;;;2.20;99.90;;;;;;4990264;28;20049;-87
2021/01/09 11:01:41;;;;;;;0.00;0.00;;;2.20;99.90;;;;;;4990336;28;20038;-87
2021/01/09 11:04:06;;;;;;;2.25;1.42;;;2.20;99.90;;;;;;4990437;28;20042;-87
2021/01/09 11:06:32;;;;;;;0.00;0.00;;;2.20;99.90;;;;;;4990369;28;20035;-87
2021/01/09 11:08:58;;;;;;;0.00;0.00;;;2.20;99.90;;;;;;5006392;28;20498;-88
2021/01/09 11:11:23;;;;;;;0.00;0.00;;;2.30;99.90;;;;;;4974265;28;20046;-87
2021/01/09 11:13:49;;;;;;;0.00;0.00;;;2.40;99.90;;;;;;4974066;28;20042;-87
2021/01/09 11:16:22;;;;;;;0.00;0.00;;;2.40;99.90;;;;;;4986638;28;20078;-88
2021/01/09 11:18:49;;;;;;;0.00;0.00;;;2.50;99.90;;;;;;4986600;28;20045;-88
2021/01/09 11:21:15;;;;;;;0.00;0.00;;;2.60;99.90;;;;;;5003013;28;20034;-87
2021/01/09 11:23:44;;;;;;;0.00;0.00;;;2.50;99.90;;;;;;4986535;28;20043;-88
2021/01/09 11:26:20;;;;;;;0.00;0.00;;;2.50;99.90;;;;;;4986755;28;20054;-88
2021/01/09 11:28:46;;;;;;;0.00;0.00;;;2.50;99.90;;;;;;5002712;28;20039;-88
2021/01/09 11:31:11;;;;;;;0.00;0.00;;;2.50;99.90;;;;;;4978525;28;20505;-87
2021/01/09 11:33:37;;;;;;;0.00;0.00;;;2.60;99.90;;;;;;5002541;28;20038;-88
2021/01/09 11:36:03;;;;;;;0.00;0.00;;;2.60;99.90;;;;;;5004440;28;20047;-87
2021/01/09 11:38:29;;;;;;;0.00;0.00;;;2.60;99.90;;;;;;4992989;28;20059;-88
2021/01/09 11:40:54;;;;;;;0.00;0.00;;;2.60;99.90;;;;;;4987439;28;20089;-88
2021/01/09 11:43:20;;;;;;;0.00;0.00;;;2.60;99.90;;;;;;5003211;28;20046;-88
2021/01/09 11:45:46;;;;;;;0.00;0.00;;;2.70;99.90;;;;;;4986332;28;20185;-87
2021/01/09 11:48:11;;;;;;;0.00;0.00;;;2.90;99.90;;;;;;4986079;28;20102;-87
2021/01/09 11:50:37;;;;;;;0.00;0.00;;;3.10;99.90;;;;;;4986151;28;20106;-88
2021/01/09 11:53:03;;;;;;;0.00;0.00;;;3.20;99.90;;;;;;4986162;28;20110;-87
2021/01/09 11:55:29;;;;;;;0.00;0.00;;;3.50;99.90;;;;;;4986059;28;20079;-87
2021/01/09 11:57:54;;;;;;;0.00;0.00;;;3.50;99.90;;;;;;4986128;28;20054;-88
2021/01/09 12:00:20;;;;;;;0.00;0.00;;;3.50;99.90;;;;;;4985854;28;20200;-88
2021/01/09 12:02:46;;;;;;;0.00;0.00;;;3.40;99.90;;;;;;4986697;28;20051;-88
2021/01/09 12:05:11;;;;;;;1.65;1.55;;;3.40;99.90;;;;;;4988883;28;20037;-88
2021/01/09 12:07:37;;;;;;;0.00;0.00;;;3.50;99.90;;;;;;4988906;28;20050;-88
2021/01/09 12:10:09;;;;;;;0.00;0.00;;;3.80;99.90;;;;;;4979503;28;20031;-87
2021/01/09 12:12:35;;;;;;;0.00;0.00;;;4.00;99.90;;;;;;4979790;28;20069;-88
2021/01/09 12:15:03;;;;;;;0.32;0.32;;;3.90;99.90;;;;;;4963157;28;20038;-88
2021/01/09 12:17:28;;;;;;;0.00;0.00;;;3.90;99.90;;;;;;4968008;28;20045;-88
2021/01/09 12:19:54;;;;;;;0.00;0.00;;;3.80;99.90;;;;;;4963620;28;20046;-89
2021/01/09 12:22:19;;;;;;;0.00;0.00;;;3.70;99.90;;;;;;4979534;28;20127;-88
2021/01/09 12:24:46;;;;;;;0.03;0.03;;;3.70;99.90;;;;;;4972765;28;20038;-89
2021/01/09 12:27:12;;;;;;;0.10;0.10;;;3.60;99.90;;;;;;5004849;28;20042;-89
2021/01/09 12:29:38;;;;;;;0.00;0.00;;;3.50;99.90;;;;;;4999505;28;20034;-89
2021/01/09 12:32:04;;;;;;;0.00;0.00;;;3.40;99.90;;;;;;4978749;28;20050;-88
2021/01/09 12:34:31;;;;;;;7.28;2.72;;;3.30;99.90;;;;;;4953828;28;20043;-88
2021/01/09 12:36:56;;;;;;;0.10;0.10;;;3.30;99.90;;;;;;4967820;28;20121;-88
2021/01/09 12:39:22;;;;;;;0.00;0.00;;;3.60;99.90;;;;;;4983968;28;20046;-87
2021/01/09 12:41:48;;;;;;;0.00;0.00;;;3.80;99.90;;;;;;4984630;28;20067;-89
2021/01/09 12:44:20;;;;;;;0.00;0.00;;;3.90;99.90;;;;;;4964148;28;20031;-89
2021/01/09 12:46:49;;;;;;;0.00;0.00;;;3.90;99.90;;;;;;4992655;28;20039;-89
2021/01/09 12:49:17;;;;;;;0.63;0.63;;;4.00;99.90;;;;;;4971418;28;20063;-89
2021/01/09 12:51:44;;;;;;;0.00;0.00;;;4.00;99.90;;;;;;4981160;28;20045;-90
2021/01/09 12:54:16;;;;;;;0.00;0.00;;;4.10;99.90;;;;;;4985931;28;20035;-89